Airfield :
LOGIN :

Register | Disclaimer

   EN    FR    IT 

 










Legend :    VFR   Marginal VFR   IFR   Intensive IFR   Very Intensive IFR
Visi :
Ceiling :
>= 8 km
>= 3000ft
5 to 8 km
1000 to 3000 ft
1500m to 5 km
500 to 1000 ft
800 to 1500m
200 to 500 ft
< 800m
< 200 ft
Symbols :   Thunderstorms  Fog  Heavy snow  Heavy precipitations  Wind > 20 kt
SIGMETs :     Misc.  Thunderstorms  Icing  Turbulence  Mountain Waves  Volcanic Ashes






- Airport Elevation : 755 ft
- IATA code : DRS


EDDC - Dresden Klotzsche

CURRENT METAR :
  • 240620Z AUTO 17003KT 090V210 9999 FEW043 03/M01 Q1008 NOSIG

EXPIRED METARs :
  • 240550Z AUTO 18004KT CAVOK 03/M01 Q1008 NOSIG
  • 240520Z AUTO VRB01KT CAVOK 02/M01 Q1008 NOSIG
  • 240450Z AUTO VRB01KT CAVOK 02/M01 Q1008 NOSIG
  • 240420Z AUTO 15003KT CAVOK 02/M01 Q1008 NOSIG
  • 240350Z AUTO VRB02KT CAVOK 02/M02 Q1008 NOSIG
  • 240320Z AUTO VRB02KT CAVOK 02/M02 Q1009
  • 240250Z AUTO 16003KT CAVOK 02/M02 Q1009
  • 240220Z AUTO 16004KT CAVOK 03/M02 Q1009 NOSIG
  • 240150Z AUTO 17005KT CAVOK 04/M02 Q1009
  • 240120Z AUTO 17004KT CAVOK 04/M02 Q1010

TAF TAF EDDC
Valid from the 24 at 06:00 until the 25 at 06:00 UTC


240500Z 2406/2506 17004KT 9999 SCT030 BKN045
BECMG 2408/2410 28008KT
TEMPO 2410/2419 SHRA BKN030CB
PROB30
TEMPO 2411/2418 28015KT 4000 TSRA
BECMG 2417/2419 22005KT
TEMPO 2502/2506 BKN010



MET'MAP, your aeronautical weather chart ! - Copyright ORBIFLY December 2007 - Disclaimer

ORBIFLY MET'MAP TEAM :

Programming & Development : Alexandra Zaïnal
Original concept : Baudouin d'Aumeries
Technical & hardware support : Manuel Goepfert
Assistance : Marc-Olivier Méhu




SOURCES & CREDITS :

   NOAA